DIRECCIÓN GENERAL DE AERONÁUTICA CIVIL
DIRECCIÓN METEOROLÓGICA DE CHILE
INFORMACIÓN METAR Y TAF

FIR SANTIAGO

Estación: SCSE
METAR SCSE 251400Z 32004KT 9999 OVC013 12/10 Q1018=

TAF SCSE 251013Z 2512/2612 29007KT 9999 SCT010 BKN016 TX15/2519Z TN09/2610Z BECMG 2516/2518 SCT014 BECMG 2601/2603 13005KT SCT012 TEMPO 2603/2612 10005KT 4000 BR BKN005=

Estación: SCER
METAR SCER 161100Z 00000KT 7000 OVC014 12/10 Q1015=

TAF SCER NIL=

Estación: SCRD
METAR SCRD 251400Z 36003KT 3500 BR OVC005 10/10 Q1018=

TAF SCRD 251017Z 2512/2524 33007KT 2000 BR OVC005 TX12/2518Z TN10/ 2512Z TEMPO 2512/2516 00000KT 0200 FG VV001=

Estación: SCVM
METAR SCVM 251300Z 19002KT 5000 BR OVC010 11/09 Q1018=

TAF SCVM SCVM 251014Z 2512/2612 00000KT 2500 BR BKN005 TX14/2519Z TN10/ 2610Z TEMPO 2512/2516 32005KT 0400 BKN002 BECMG 2516/2518 33005KT 6000 BKN008 BECMG 2519/2521 30005KT 9999 BKN010 BECMG 2602/2604 00000KT 3000 BR BKN008 TEMPO 2608/2612 32005KT 0500 FG BKN002=

Estación: SCTB
METAR SCTB 251400Z 29003KT 4000 HZ NSC 14/07 Q1018=

TAF SCTB 251017Z 2512/2524 21007KT 4000 BR BKN008 TX26/2518Z TN10/ 2512Z TEMPO 2512/2516 05007KT 0800 FG OVC002 BECMG 2515/2517 8000 NSC BECMG 2518/2520 CAVOK=

Estación: SCEL
METAR SCEL 251300Z 32004KT 280V340 1000 0800N R17L/1000V1500D R17R/1200U BCFG OVC002 09/09 Q1018 NOSIG=

TAF COR SCEL 251109Z 2512/2612 16005KT 0800 FG BKN005 TX24/2519Z TN10 /2610Z BECMG 2514/2516 30004KT 4000 BR BKN010 BECMG 2516/2518 19007KT 7000 SCT012 BECMG 2518/2520 CAVOK BECMG 2600/2602 16005KT 7000 NSC TEMPO 2603/2612 4000 BR=

Estación: SCSN
METAR SCSN 251300Z 00000KT 4000 HZ OVC009 11/09 Q1019=

TAF SCSN 251016Z 2512/2524 30007KT 2500 BR OVC005 TX12/2518Z TN10/ 2512Z TEMPO 2512/2516 00000KT 0500 FG OVC003 BECMG 2518/2520 4000 BR BKN008=

Estación: SCRG
METAR SCRG 232000Z 19012KT CAVOK 23/10 Q1018=

TAF SCRG 231040Z 2312/2324 VRB02KT 8000 NSC TX26/2318Z TN10/2312Z TEMPO 2312/2314 VRB02KT 4000 BR BECMG 2318/2320 20008KT CAVOK=

Estación: SCIC
METAR SCIC 251300Z 00000KT 4000 BR OVC005 11/10 Q1018=

TAF SCIC 251018Z 2512/2524 22005KT 4000 BR BKN005 TX22/2519Z TN09/ 2512Z TEMPO 2512/2516 0500 FG BKN002 BECMG 2516/2518 25005KT CAVOK=

Estación: SCCH
METAR SCCH 251300Z 01006KT 9999 OVC008 11/09 Q1018=

TAF SCCH 251019Z 2512/2524 22007KT 4000 BR BKN005 TX22/2519Z TN07/ 2512Z TEMPO 2512/2516 00000KT 0200 FG VV001 BECMG 2517/2519 32005KT CAVOK=

Estación: SCIE
METAR SCIE 251400Z 01008KT 340V040 9999 BKN019 13/10 Q1018=

TAF SCIE 251015Z 2512/2612 01007KT 9999 BKN016 TX16/2518Z TN10/2610Z BECMG 2514/2516 19005KT SCT020 BECMG 2518/2520 18007KT CAVOK BECMG 2601/2603 7000 BKN008 TEMPO 2603/2612 0500 FG OVC002=

Estación: SCGE
METAR SCGE 251300Z 36007KT 9000 BKN046 OVC066 11/11 Q1018=

TAF SCGE 251020Z 2512/2524 18007KT CAVOK TX22/2519Z TN08/2512Z TEMPO 2512/2516 00000KT 4000 BR BKN007=


Volver